Airfield :







YOU CAN JOIN US ON...

 
LOGIN :

Register | Disclaimer

   EN    FR    IT 

 









Legend :    VFR   Marginal VFR   IFR   Intensive IFR   Very Intensive IFR
Visi :
Ceiling :
>= 8 km
>= 3000ft
5 to 8 km
1000 to 3000 ft
1500m to 5 km
500 to 1000 ft
800 to 1500m
200 to 500 ft
< 800m
< 200 ft
Symbols :   Thunderstorms  Fog  Heavy snow  Heavy precipitations  Wind > 20 kt







- Airport Elevation : 11 ft


KGHG - Marshfield Municipal George Harlow Field

CURRENT METAR :
  • 250415Z AUTO 05010KT 10SM BKN022 19/15 A3029 RMK AO2

EXPIRED METARs :
  • 250355Z AUTO 05011KT 10SM FEW021 19/15 A3028 RMK AO2
  • 250335Z AUTO 06010KT 10SM CLR 19/15 A3028 RMK AO2
  • 250315Z AUTO 05008KT 10SM CLR 20/15 A3028 RMK AO2
  • 250255Z AUTO 06009KT 10SM CLR 20/14 A3028 RMK AO2
  • 250235Z AUTO 06008G14KT 10SM CLR 20/15 A3028 RMK AO2
  • 250215Z AUTO 06008KT 10SM CLR 20/15 A3028 RMK AO2
  • 250155Z AUTO 06007KT 10SM CLR 20/14 A3027 RMK AO2
  • 250135Z AUTO VRB05KT 10SM CLR 20/15 A3027 RMK AO2

TAF N/A
No reported NOTAMs for that airfield.



MET'MAP, your aeronautical weather chart ! - Copyright ORBIFLY December 2007 - Disclaimer

ORBIFLY MET'MAP TEAM :

Programming & Development : Alexandra Zaïnal
Concept & Development : Baudouin d'Aumeries
Co-Development & Prog : Marc-Olivier Méhu
Technical & hardware support : Manuel Goepfert

Contact : metmap@orbifly.com




SOURCES & CREDITS :

   NOAA